createdAt,value
2023-06-12T00:00:29.669Z,5.97
2023-06-12T00:02:58.933Z,5.78
2023-06-12T00:05:28.807Z,5.70
2023-06-12T00:07:58.071Z,6.15
2023-06-12T00:10:25.275Z,6.10
2023-06-12T00:12:52.259Z,4.30
2023-06-12T00:15:19.450Z,4.50
2023-06-12T00:17:46.150Z,6.18
2023-06-12T00:20:13.329Z,7.50
2023-06-12T00:22:41.557Z,7.20
2023-06-12T00:25:09.180Z,4.75
2023-06-12T00:30:03.778Z,6.93
2023-06-12T00:32:30.498Z,4.35
2023-06-12T00:34:57.255Z,5.38
2023-06-12T00:37:25.829Z,7.00
2023-06-12T00:39:52.703Z,4.10
2023-06-12T00:42:21.911Z,4.55
2023-06-12T00:44:48.818Z,5.70
2023-06-12T00:47:15.811Z,6.40
2023-06-12T00:49:43.653Z,6.72
2023-06-12T00:52:13.106Z,5.65
2023-06-12T00:54:41.423Z,6.00
2023-06-12T00:57:09.160Z,4.10
2023-06-12T00:59:36.876Z,5.82
2023-06-12T01:04:32.122Z,4.00
2023-06-12T01:07:09.362Z,4.47
2023-06-12T01:09:55.068Z,4.32
2023-06-12T01:12:21.798Z,4.15
2023-06-12T01:14:48.967Z,5.93
2023-06-12T01:17:18.433Z,6.57
2023-06-12T01:19:45.511Z,8.70
2023-06-12T01:22:14.390Z,6.70
2023-06-12T01:24:50.897Z,6.25
2023-06-12T01:27:45.901Z,4.43
2023-06-12T01:30:48.116Z,6.93
2023-06-12T01:33:34.322Z,5.70
2023-06-12T01:36:02.029Z,4.78
2023-06-12T01:40:59.068Z,5.40
2023-06-12T01:43:26.083Z,6.63
2023-06-12T01:45:52.990Z,7.90
2023-06-12T01:48:19.638Z,11.57
2023-06-12T01:50:46.335Z,11.32
2023-06-12T01:53:14.532Z,19.05
2023-06-12T01:55:42.742Z,21.55
2023-06-12T01:58:10.197Z,21.02
2023-06-12T02:00:37.369Z,24.88
2023-06-12T02:03:04.919Z,29.10
2023-06-12T02:05:31.607Z,36.55
2023-06-12T02:07:58.242Z,61.45
2023-06-12T02:10:25.154Z,81.28
2023-06-12T02:12:54.751Z,66.57
2023-06-12T02:15:21.844Z,61.80
2023-06-12T02:17:48.539Z,42.92
2023-06-12T02:20:15.329Z,36.95
2023-06-12T02:22:42.642Z,20.23
2023-06-12T02:25:09.446Z,14.52
2023-06-12T02:27:36.210Z,20.02
2023-06-12T02:30:02.922Z,20.73
2023-06-12T02:32:29.561Z,11.43
2023-06-12T02:34:56.216Z,8.52
2023-06-12T02:37:23.811Z,9.10
2023-06-12T02:39:50.777Z,8.55
2023-06-12T02:42:17.418Z,7.32
2023-06-12T02:44:44.015Z,9.63
2023-06-12T02:47:10.995Z,7.28
2023-06-12T02:49:39.686Z,6.65
2023-06-12T02:52:07.077Z,5.25
2023-06-12T02:54:34.375Z,6.85
2023-06-12T02:57:01.490Z,4.85
2023-06-12T02:59:28.314Z,8.75
2023-06-12T03:01:55.204Z,6.65
2023-06-12T03:04:22.734Z,6.25
2023-06-12T03:06:54.946Z,5.63
2023-06-12T03:09:23.216Z,6.15
2023-06-12T03:11:52.920Z,9.55
2023-06-12T03:14:22.833Z,6.22
2023-06-12T03:16:49.815Z,7.15
2023-06-12T03:19:17.258Z,5.60
2023-06-12T03:21:44.868Z,6.72
2023-06-12T03:24:12.088Z,5.15
2023-06-12T03:26:40.078Z,4.40
2023-06-12T03:29:07.421Z,6.60
2023-06-12T03:31:34.646Z,4.80
2023-06-12T03:34:01.415Z,6.53
2023-06-12T03:36:29.887Z,6.78
2023-06-12T03:38:57.194Z,5.88
2023-06-12T03:41:24.824Z,5.22
2023-06-12T03:43:52.490Z,7.82
2023-06-12T03:46:19.382Z,4.43
2023-06-12T03:48:46.037Z,5.47
2023-06-12T03:51:12.695Z,8.48
2023-06-12T03:53:40.262Z,5.85
2023-06-12T03:56:08.435Z,6.32
2023-06-12T03:58:36.088Z,9.98
2023-06-12T04:01:03.039Z,5.97
2023-06-12T04:03:32.723Z,7.32
2023-06-12T04:05:59.640Z,7.55
2023-06-12T04:08:26.222Z,6.45
2023-06-12T04:10:53.647Z,7.78
2023-06-12T04:13:20.253Z,6.93
2023-06-12T04:15:48.613Z,7.15
2023-06-12T04:18:15.743Z,5.75
2023-06-12T04:20:42.661Z,5.97
2023-06-12T04:23:12.711Z,5.75
2023-06-12T04:25:40.279Z,5.70
2023-06-12T04:28:09.657Z,7.45
2023-06-12T04:30:36.775Z,5.97
2023-06-12T04:33:04.791Z,5.35
2023-06-12T04:35:34.628Z,6.15
2023-06-12T04:38:01.564Z,5.50
2023-06-12T04:40:28.948Z,7.45
2023-06-12T04:42:57.935Z,4.72
2023-06-12T04:45:25.107Z,5.50
2023-06-12T04:47:52.421Z,6.70
2023-06-12T04:50:20.108Z,4.60
2023-06-12T04:52:49.332Z,5.50
2023-06-12T04:55:22.090Z,5.75
2023-06-12T04:57:53.822Z,6.57
2023-06-12T05:00:21.805Z,6.18
2023-06-12T05:02:48.961Z,5.55
2023-06-12T05:05:15.828Z,6.32
2023-06-12T05:07:46.616Z,7.70
2023-06-12T05:10:16.767Z,8.90
2023-06-12T05:12:43.739Z,6.82
2023-06-12T05:15:11.153Z,6.13
2023-06-12T05:17:39.231Z,5.75
2023-06-12T05:20:10.904Z,7.55
2023-06-12T05:22:38.006Z,7.90
2023-06-12T05:25:05.684Z,8.10
2023-06-12T05:27:32.831Z,5.35
2023-06-12T05:29:59.945Z,5.85
2023-06-12T05:32:26.827Z,6.68
2023-06-12T05:34:53.636Z,6.35
2023-06-12T05:37:20.654Z,7.28
2023-06-12T05:39:47.487Z,8.80
2023-06-12T05:42:14.288Z,7.07
2023-06-12T05:44:41.001Z,6.00
2023-06-12T05:47:11.036Z,8.52
2023-06-12T05:49:37.961Z,5.60
2023-06-12T05:52:05.182Z,6.53
2023-06-12T05:54:33.094Z,7.95
2023-06-12T05:56:59.890Z,6.75
2023-06-12T05:59:26.604Z,6.20
2023-06-12T06:01:53.233Z,5.90
2023-06-12T06:04:20.499Z,5.55
2023-06-12T06:06:48.399Z,7.68
2023-06-12T06:11:42.614Z,5.28
2023-06-12T06:14:09.605Z,6.45
2023-06-12T06:16:49.342Z,6.40
2023-06-12T06:19:21.367Z,5.57
2023-06-12T06:21:47.959Z,10.13
2023-06-12T06:24:14.868Z,6.32
2023-06-12T06:26:41.964Z,7.68
2023-06-12T06:29:14.477Z,5.82
2023-06-12T06:31:42.185Z,6.85
2023-06-12T06:34:08.970Z,8.50
2023-06-12T06:36:36.690Z,6.07
2023-06-12T06:39:04.987Z,7.18
2023-06-12T06:41:31.517Z,7.75
2023-06-12T06:43:58.105Z,7.05
2023-06-12T06:46:24.737Z,5.40
2023-06-12T06:48:51.600Z,6.55
2023-06-12T06:51:19.350Z,7.80
2023-06-12T06:53:47.598Z,7.43
2023-06-12T06:56:14.280Z,9.50
2023-06-12T06:58:41.549Z,6.45
2023-06-12T07:01:08.312Z,9.10
2023-06-12T07:03:34.950Z,8.30
2023-06-12T07:06:01.752Z,9.25
2023-06-12T07:08:28.588Z,5.47
2023-06-12T07:10:55.186Z,7.25
2023-06-12T07:13:21.736Z,6.90
2023-06-12T07:15:48.606Z,8.10
2023-06-12T07:18:15.542Z,7.00
2023-06-12T07:20:42.209Z,8.88
2023-06-12T07:23:09.208Z,7.07
2023-06-12T07:25:36.315Z,8.13
2023-06-12T07:28:02.944Z,6.80
2023-06-12T07:30:29.581Z,7.45
2023-06-12T07:32:56.330Z,7.07
2023-06-12T07:35:23.339Z,6.55
2023-06-12T07:37:51.540Z,5.93
2023-06-12T07:40:18.623Z,7.43
2023-06-12T07:42:45.203Z,6.10
2023-06-12T07:45:12.640Z,5.45
2023-06-12T07:47:40.010Z,7.05
2023-06-12T07:50:07.189Z,6.75
2023-06-12T07:52:33.872Z,8.45
2023-06-12T07:55:01.126Z,7.70
2023-06-12T07:57:29.327Z,8.57
2023-06-12T07:59:56.441Z,4.90
2023-06-12T08:02:30.545Z,6.97
2023-06-12T08:04:57.429Z,6.10
2023-06-12T08:07:24.063Z,6.93
2023-06-12T08:09:50.989Z,6.25
2023-06-12T08:12:17.662Z,6.93
2023-06-12T08:14:44.512Z,6.50
2023-06-12T08:17:12.641Z,5.97
2023-06-12T08:19:40.467Z,8.85
2023-06-12T08:22:09.120Z,9.00
2023-06-12T08:24:37.691Z,6.53
2023-06-12T08:27:04.924Z,7.38
2023-06-12T08:29:32.206Z,8.77
2023-06-12T08:31:58.860Z,6.25
2023-06-12T08:34:27.078Z,7.70
2023-06-12T08:36:54.786Z,7.82
2023-06-12T08:39:21.751Z,7.47
2023-06-12T08:42:08.623Z,10.20
2023-06-12T08:44:36.356Z,7.63
2023-06-12T08:47:04.897Z,7.18
2023-06-12T08:49:32.625Z,7.57
2023-06-12T08:52:00.014Z,7.57
2023-06-12T08:56:57.185Z,8.55
2023-06-12T08:59:24.401Z,8.10
2023-06-12T09:02:12.049Z,9.07
2023-06-12T09:05:00.904Z,7.05
2023-06-12T09:07:30.922Z,9.63
2023-06-12T09:10:08.590Z,13.10
2023-06-12T09:12:44.476Z,8.57
2023-06-12T09:15:17.384Z,11.65
2023-06-12T09:17:47.768Z,10.48
2023-06-12T09:20:40.656Z,8.50
2023-06-12T09:23:09.608Z,7.28
2023-06-12T09:25:55.494Z,9.77
2023-06-12T09:28:38.521Z,7.20
2023-06-12T09:31:06.297Z,8.10
2023-06-12T09:33:33.650Z,7.63
2023-06-12T09:38:36.265Z,11.10
2023-06-12T09:41:08.094Z,10.02
2023-06-12T09:43:37.081Z,9.52
2023-06-12T09:46:06.707Z,8.23
2023-06-12T09:48:36.559Z,9.23
2023-06-12T09:51:07.865Z,9.75
2023-06-12T09:53:37.930Z,8.52
2023-06-12T09:56:09.313Z,9.00
2023-06-12T09:58:40.340Z,8.43
2023-06-12T10:01:09.213Z,9.55
2023-06-12T10:03:39.098Z,11.25
2023-06-12T10:06:08.360Z,9.52
2023-06-12T10:08:36.177Z,6.80
2023-06-12T10:11:04.442Z,9.50
2023-06-12T10:13:32.771Z,9.82
2023-06-12T10:15:59.789Z,8.32
2023-06-12T10:18:27.800Z,7.82
2023-06-12T10:20:54.928Z,8.20
2023-06-12T10:23:24.008Z,6.07
2023-06-12T10:25:51.984Z,5.82
2023-06-12T10:28:19.670Z,6.03
2023-06-12T10:33:32.296Z,6.95
2023-06-12T10:35:58.857Z,6.93
2023-06-12T10:38:25.613Z,6.68
2023-06-12T10:40:52.785Z,7.13
2023-06-12T10:43:26.466Z,6.82
2023-06-12T10:45:59.998Z,9.52
2023-06-12T10:48:27.016Z,8.73
2023-06-12T10:50:55.536Z,7.68
2023-06-12T10:53:32.772Z,12.35
2023-06-12T10:56:06.791Z,8.93
2023-06-12T10:58:38.302Z,8.80
2023-06-12T11:01:15.569Z,6.75
2023-06-12T11:03:44.355Z,9.13
2023-06-12T11:06:17.759Z,7.82
2023-06-12T11:08:47.310Z,8.02
2023-06-12T11:11:16.049Z,6.13
2023-06-12T11:13:44.164Z,7.95
2023-06-12T11:16:18.493Z,9.48
2023-06-12T11:18:45.237Z,8.15
2023-06-12T11:21:12.531Z,7.97
2023-06-12T11:23:43.627Z,7.45
2023-06-12T11:26:10.849Z,8.55
2023-06-12T11:28:37.629Z,6.55
2023-06-12T11:33:34.494Z,6.50
2023-06-12T11:36:01.790Z,10.40
2023-06-12T11:40:58.611Z,6.88
2023-06-12T11:43:26.032Z,5.97
2023-06-12T11:45:56.424Z,6.07
2023-06-12T11:50:54.277Z,5.15
2023-06-12T11:53:21.959Z,7.90
2023-06-12T11:58:22.506Z,7.05
2023-06-12T12:00:51.186Z,6.10
2023-06-12T12:03:18.234Z,10.48
2023-06-12T12:05:45.224Z,5.75
2023-06-12T12:08:13.392Z,6.88
2023-06-12T12:10:41.783Z,7.32
2023-06-12T12:13:09.002Z,6.07
2023-06-12T12:15:43.186Z,6.65
2023-06-12T12:18:14.637Z,8.60
2023-06-12T12:20:42.154Z,7.00
2023-06-12T12:25:45.543Z,5.05
2023-06-12T12:28:12.433Z,6.07
2023-06-12T12:30:39.057Z,7.72
2023-06-12T12:33:06.203Z,6.28
2023-06-12T12:35:33.195Z,8.07
2023-06-12T12:38:00.187Z,5.80
2023-06-12T12:40:29.912Z,7.63
2023-06-12T12:42:56.856Z,8.10
2023-06-12T12:45:23.453Z,4.53
2023-06-12T12:47:50.522Z,6.68
2023-06-12T12:50:23.493Z,5.05
2023-06-12T12:52:53.136Z,3.60
2023-06-12T12:55:19.714Z,4.63
2023-06-12T12:57:48.159Z,7.07
2023-06-12T13:00:19.436Z,6.15
2023-06-12T13:02:47.265Z,7.15
2023-06-12T13:05:16.688Z,5.93
2023-06-12T13:07:44.342Z,5.03
2023-06-12T13:10:14.738Z,7.18
2023-06-12T13:12:42.085Z,6.65
2023-06-12T13:15:10.988Z,4.90
2023-06-12T13:17:38.389Z,6.55
2023-06-12T13:22:34.103Z,4.55
2023-06-12T13:25:00.892Z,6.65
2023-06-12T13:27:27.449Z,5.45
2023-06-12T13:29:54.456Z,6.28
2023-06-12T13:32:21.772Z,7.43
2023-06-12T13:37:15.294Z,5.88
2023-06-12T13:39:41.929Z,4.60
2023-06-12T13:42:08.812Z,5.50
2023-06-12T13:44:36.071Z,5.97
2023-06-12T13:47:03.053Z,7.03
2023-06-12T13:49:31.922Z,5.80
2023-06-12T13:51:59.632Z,4.93
2023-06-12T13:54:26.365Z,6.72
2023-06-12T13:56:53.070Z,13.68
2023-06-12T13:59:21.420Z,4.10
2023-06-12T14:01:48.747Z,5.95
2023-06-12T14:04:19.497Z,3.75
2023-06-12T14:06:49.782Z,5.90
2023-06-12T14:09:16.623Z,3.72
2023-06-12T14:11:43.485Z,7.15
2023-06-12T14:14:11.156Z,8.65
2023-06-12T14:16:38.408Z,4.53
2023-06-12T14:21:31.970Z,6.22
2023-06-12T14:24:00.109Z,3.92
2023-06-12T14:26:27.849Z,5.07
2023-06-12T14:28:54.695Z,4.85
2023-06-12T14:31:22.629Z,3.50
2023-06-12T14:33:49.544Z,5.13
2023-06-12T14:36:16.120Z,5.07
2023-06-12T14:38:42.817Z,6.75
2023-06-12T14:41:09.473Z,6.78
2023-06-12T14:43:36.110Z,5.40
2023-06-12T14:46:02.887Z,4.75
2023-06-12T14:48:30.984Z,4.72
2023-06-12T14:50:57.890Z,5.25
2023-06-12T14:53:24.512Z,3.35
2023-06-12T14:55:51.228Z,7.30
2023-06-12T14:58:18.240Z,5.15
2023-06-12T15:00:45.575Z,7.00
2023-06-12T15:03:12.558Z,3.95
2023-06-12T15:05:39.336Z,4.30
2023-06-12T15:08:06.170Z,5.32
2023-06-12T15:10:33.316Z,4.50
2023-06-12T15:13:09.417Z,4.50
2023-06-12T15:15:38.394Z,6.47
2023-06-12T15:18:05.823Z,5.25
2023-06-12T15:20:32.890Z,5.65
2023-06-12T15:22:59.597Z,3.33
2023-06-12T15:25:26.400Z,4.70
2023-06-12T15:27:53.315Z,5.78
2023-06-12T15:30:20.164Z,4.95
2023-06-12T15:32:47.949Z,4.80
2023-06-12T15:35:15.939Z,6.60
2023-06-12T15:37:42.998Z,3.90
2023-06-12T15:40:10.542Z,3.63
2023-06-12T15:42:38.821Z,6.78
2023-06-12T15:45:06.430Z,4.55
2023-06-12T15:50:03.920Z,6.72
2023-06-12T15:52:31.840Z,5.10
2023-06-12T15:54:58.704Z,8.85
2023-06-12T15:57:25.676Z,6.47
2023-06-12T15:59:52.292Z,5.07
2023-06-12T16:02:19.669Z,8.68
2023-06-12T16:07:14.050Z,4.47
2023-06-12T16:09:42.584Z,5.38
2023-06-12T16:12:09.823Z,5.80
2023-06-12T16:14:36.461Z,8.35
2023-06-12T16:17:04.121Z,6.18
2023-06-12T16:19:31.444Z,7.57
2023-06-12T16:21:58.427Z,6.30
2023-06-12T16:24:25.181Z,7.57
2023-06-12T16:26:54.105Z,5.13
2023-06-12T16:29:20.838Z,8.35
2023-06-12T16:31:49.029Z,5.20
2023-06-12T16:34:17.081Z,10.20
2023-06-12T16:36:44.601Z,6.05
2023-06-12T16:39:11.373Z,6.32
2023-06-12T16:41:38.204Z,8.10
2023-06-12T16:44:05.062Z,6.57
2023-06-12T16:46:31.895Z,5.45
2023-06-12T16:48:58.919Z,6.65
2023-06-12T16:51:25.876Z,6.13
2023-06-12T16:53:53.456Z,10.55
2023-06-12T16:56:20.325Z,8.55
2023-06-12T16:58:47.028Z,7.72
2023-06-12T17:01:15.572Z,6.80
2023-06-12T17:03:42.448Z,7.45
2023-06-12T17:06:11.710Z,9.27
2023-06-12T17:08:39.308Z,7.07
2023-06-12T17:11:10.077Z,7.97
2023-06-12T17:13:37.190Z,10.45
2023-06-12T17:16:04.352Z,11.30
2023-06-12T17:18:31.303Z,10.50
2023-06-12T17:20:58.022Z,8.40
2023-06-12T17:23:25.168Z,8.45
2023-06-12T17:25:51.699Z,6.80
2023-06-12T17:28:18.308Z,7.80
2023-06-12T17:30:45.069Z,5.93
2023-06-12T17:33:12.212Z,6.70
2023-06-12T17:35:39.602Z,9.00
2023-06-12T17:38:06.211Z,9.85
2023-06-12T17:40:34.257Z,7.43
2023-06-12T17:43:01.214Z,7.93
2023-06-12T17:45:28.014Z,9.65
2023-06-12T17:47:56.634Z,8.82
2023-06-12T17:50:23.793Z,8.02
2023-06-12T17:52:50.435Z,9.70
2023-06-12T17:55:17.303Z,9.82
2023-06-12T17:57:46.514Z,9.95
2023-06-12T18:00:16.060Z,8.73
2023-06-12T18:02:43.221Z,7.47
2023-06-12T18:05:10.086Z,8.80
2023-06-12T18:07:36.793Z,10.95
2023-06-12T18:10:04.809Z,7.78
2023-06-12T18:12:31.725Z,11.38
2023-06-12T18:14:58.554Z,9.82
2023-06-12T18:17:25.471Z,8.82
2023-06-12T18:19:53.330Z,11.40
2023-06-12T18:22:19.915Z,10.57
2023-06-12T18:24:46.479Z,9.85
2023-06-12T18:27:13.181Z,10.25
2023-06-12T18:29:39.922Z,10.52
2023-06-12T18:32:07.032Z,11.45
2023-06-12T18:34:34.336Z,8.75
2023-06-12T18:37:05.049Z,10.18
2023-06-12T18:39:32.058Z,9.10
2023-06-12T18:41:59.663Z,11.27
2023-06-12T18:44:27.695Z,16.20
2023-06-12T18:46:54.637Z,9.48
2023-06-12T18:49:22.707Z,14.02
2023-06-12T18:51:49.457Z,11.15
2023-06-12T18:54:16.121Z,9.10
2023-06-12T18:56:43.292Z,13.05
2023-06-12T18:59:09.903Z,12.98
2023-06-12T19:01:36.827Z,10.73
2023-06-12T19:04:03.716Z,10.75
2023-06-12T19:06:30.416Z,14.25
2023-06-12T19:08:57.018Z,10.13
2023-06-12T19:11:23.819Z,10.52
2023-06-12T19:13:53.386Z,9.63
2023-06-12T19:16:20.181Z,8.95
2023-06-12T19:18:46.815Z,12.77
2023-06-12T19:21:14.250Z,13.48
2023-06-12T19:23:40.926Z,11.43
2023-06-12T19:26:08.143Z,11.20
2023-06-12T19:28:34.852Z,9.93
2023-06-12T19:31:01.641Z,12.40
2023-06-12T19:33:28.565Z,11.77
2023-06-12T19:35:55.226Z,9.45
2023-06-12T19:38:22.222Z,8.30
2023-06-12T19:40:50.261Z,10.40
2023-06-12T19:43:17.015Z,9.18
2023-06-12T19:45:43.904Z,8.80
2023-06-12T19:48:10.726Z,8.15
2023-06-12T19:50:37.783Z,9.18
2023-06-12T19:53:04.488Z,8.23
2023-06-12T19:55:31.513Z,7.30
2023-06-12T19:57:59.289Z,11.25
2023-06-12T20:00:26.830Z,8.90
2023-06-12T20:05:24.308Z,8.55
2023-06-12T20:07:51.238Z,9.43
2023-06-12T20:10:18.028Z,12.25
2023-06-12T20:12:44.699Z,6.65
2023-06-12T20:15:11.931Z,7.78
2023-06-12T20:17:38.861Z,8.57
2023-06-12T20:20:06.251Z,9.02
2023-06-12T20:22:32.806Z,6.72
2023-06-12T20:24:59.590Z,9.93
2023-06-12T20:27:27.589Z,6.05
2023-06-12T20:29:56.211Z,10.20
2023-06-12T20:32:23.241Z,7.75
2023-06-12T20:34:49.876Z,7.90
2023-06-12T20:37:16.743Z,6.80
2023-06-12T20:39:43.659Z,8.02
2023-06-12T20:42:11.414Z,7.10
2023-06-12T20:44:38.598Z,7.88
2023-06-12T20:47:05.271Z,8.10
2023-06-12T20:49:32.032Z,7.80
2023-06-12T20:51:58.675Z,7.70
2023-06-12T20:54:25.265Z,9.05
2023-06-12T20:56:51.855Z,6.47
2023-06-12T20:59:19.439Z,6.03
2023-06-12T21:04:13.103Z,8.18
2023-06-12T21:06:39.884Z,7.25
2023-06-12T21:09:06.796Z,6.25
2023-06-12T21:11:35.800Z,4.75
2023-06-12T21:14:10.555Z,5.18
2023-06-12T21:16:38.244Z,9.50
2023-06-12T21:19:06.601Z,8.45
2023-06-12T21:21:37.066Z,5.25
2023-06-12T21:24:04.006Z,7.00
2023-06-12T21:26:30.932Z,5.78
2023-06-12T21:28:58.075Z,7.15
2023-06-12T21:31:27.944Z,8.68
2023-06-12T21:33:54.851Z,6.90
2023-06-12T21:36:22.978Z,7.75
2023-06-12T21:38:50.402Z,6.18
2023-06-12T21:41:17.793Z,7.80
2023-06-12T21:43:44.765Z,6.85
2023-06-12T21:46:11.828Z,6.22
2023-06-12T21:48:38.508Z,7.32
2023-06-12T21:51:05.137Z,6.40
2023-06-12T21:53:33.095Z,9.73
2023-06-12T21:56:00.078Z,8.35
2023-06-12T21:58:26.863Z,6.28
2023-06-12T22:00:54.060Z,4.47
2023-06-12T22:03:20.666Z,8.27
2023-06-12T22:05:47.301Z,6.20
2023-06-12T22:08:13.837Z,5.00
2023-06-12T22:10:41.508Z,6.85
2023-06-12T22:15:37.033Z,4.90
2023-06-12T22:18:07.792Z,4.82
2023-06-12T22:20:35.259Z,8.85
2023-06-12T22:23:02.062Z,4.53
2023-06-12T22:25:28.714Z,5.25
2023-06-12T22:27:55.352Z,4.95
2023-06-12T22:30:22.041Z,5.65
2023-06-12T22:32:48.684Z,4.43
2023-06-12T22:35:15.546Z,8.30
2023-06-12T22:37:42.629Z,6.13
2023-06-12T22:40:10.086Z,3.67
2023-06-12T22:42:36.953Z,6.03
2023-06-12T22:45:03.926Z,4.53
2023-06-12T22:47:31.250Z,4.40
2023-06-12T22:49:58.169Z,4.97
2023-06-12T22:52:25.741Z,3.50
2023-06-12T22:54:52.330Z,8.50
2023-06-12T22:57:18.923Z,3.30
2023-06-12T22:59:45.642Z,4.47
2023-06-12T23:02:12.285Z,5.93
2023-06-12T23:04:39.260Z,5.45
2023-06-12T23:07:08.215Z,8.57
2023-06-12T23:09:34.975Z,6.15
2023-06-12T23:12:02.147Z,6.45
2023-06-12T23:14:28.636Z,6.20
2023-06-12T23:16:57.611Z,4.88
2023-06-12T23:19:26.989Z,4.90
2023-06-12T23:21:53.694Z,6.05
2023-06-12T23:24:22.814Z,5.88
2023-06-12T23:26:49.830Z,8.07
2023-06-12T23:29:16.849Z,4.75
2023-06-12T23:31:43.473Z,5.75
2023-06-12T23:34:10.084Z,4.18
2023-06-12T23:36:40.508Z,5.90
2023-06-12T23:39:08.621Z,4.00
2023-06-12T23:41:35.634Z,10.05
2023-06-12T23:44:03.019Z,5.72
2023-06-12T23:46:29.644Z,5.03
2023-06-12T23:48:56.759Z,4.97
2023-06-12T23:51:23.244Z,3.92
2023-06-12T23:53:49.859Z,4.93
2023-06-12T23:56:16.656Z,4.05
2023-06-12T23:58:43.307Z,8.10
